sensor_id;sensor_type;location;lat;lon;timestamp;P1;durP1;ratioP1;P2;durP2;ratioP2
15876;SDS011;8037;51.666;7.834;2022-12-08T00:01:05;9.17;;;6.73;;
15876;SDS011;8037;51.666;7.834;2022-12-08T00:03:31;11.93;;;7.10;;
15876;SDS011;8037;51.666;7.834;2022-12-08T00:05:57;7.83;;;5.70;;
15876;SDS011;8037;51.666;7.834;2022-12-08T00:08:42;7.70;;;5.67;;
15876;SDS011;8037;51.666;7.834;2022-12-08T00:11:26;10.50;;;5.93;;
15876;SDS011;8037;51.666;7.834;2022-12-08T00:13:52;12.10;;;6.00;;
15876;SDS011;8037;51.666;7.834;2022-12-08T00:16:18;9.33;;;5.47;;
15876;SDS011;8037;51.666;7.834;2022-12-08T00:18:44;5.47;;;4.97;;
15876;SDS011;8037;51.666;7.834;2022-12-08T00:21:10;6.60;;;5.40;;
15876;SDS011;8037;51.666;7.834;2022-12-08T00:23:36;5.07;;;4.67;;
15876;SDS011;8037;51.666;7.834;2022-12-08T00:26:03;10.03;;;6.10;;
15876;SDS011;8037;51.666;7.834;2022-12-08T00:28:29;5.27;;;4.73;;
15876;SDS011;8037;51.666;7.834;2022-12-08T00:30:54;10.30;;;6.87;;
15876;SDS011;8037;51.666;7.834;2022-12-08T00:33:20;9.10;;;5.10;;
15876;SDS011;8037;51.666;7.834;2022-12-08T00:35:46;6.97;;;6.07;;
15876;SDS011;8037;51.666;7.834;2022-12-08T00:38:12;7.57;;;5.50;;
15876;SDS011;8037;51.666;7.834;2022-12-08T00:40:42;6.27;;;5.50;;
15876;SDS011;8037;51.666;7.834;2022-12-08T00:43:11;6.93;;;5.63;;
15876;SDS011;8037;51.666;7.834;2022-12-08T00:45:37;6.83;;;5.63;;
15876;SDS011;8037;51.666;7.834;2022-12-08T00:48:03;13.03;;;6.60;;
15876;SDS011;8037;51.666;7.834;2022-12-08T00:50:29;21.10;;;5.57;;
15876;SDS011;8037;51.666;7.834;2022-12-08T00:52:55;6.33;;;5.17;;
15876;SDS011;8037;51.666;7.834;2022-12-08T00:55:20;6.27;;;4.83;;
15876;SDS011;8037;51.666;7.834;2022-12-08T00:57:46;9.57;;;5.27;;
15876;SDS011;8037;51.666;7.834;2022-12-08T01:00:12;11.90;;;4.97;;
15876;SDS011;8037;51.666;7.834;2022-12-08T01:02:39;8.03;;;5.83;;
15876;SDS011;8037;51.666;7.834;2022-12-08T01:05:08;7.00;;;5.67;;
15876;SDS011;8037;51.666;7.834;2022-12-08T01:07:34;7.80;;;4.97;;
15876;SDS011;8037;51.666;7.834;2022-12-08T01:10:00;6.17;;;4.47;;
15876;SDS011;8037;51.666;7.834;2022-12-08T01:12:27;6.57;;;4.80;;
15876;SDS011;8037;51.666;7.834;2022-12-08T01:14:54;4.93;;;4.10;;
15876;SDS011;8037;51.666;7.834;2022-12-08T01:17:20;6.80;;;5.50;;
15876;SDS011;8037;51.666;7.834;2022-12-08T01:19:45;10.40;;;6.20;;
15876;SDS011;8037;51.666;7.834;2022-12-08T01:22:11;8.37;;;5.90;;
15876;SDS011;8037;51.666;7.834;2022-12-08T01:24:37;10.50;;;6.10;;
15876;SDS011;8037;51.666;7.834;2022-12-08T01:27:03;9.73;;;6.30;;
15876;SDS011;8037;51.666;7.834;2022-12-08T01:29:29;11.10;;;6.33;;
15876;SDS011;8037;51.666;7.834;2022-12-08T01:31:55;7.23;;;5.80;;
15876;SDS011;8037;51.666;7.834;2022-12-08T01:34:21;12.37;;;5.97;;
15876;SDS011;8037;51.666;7.834;2022-12-08T01:36:47;8.03;;;5.70;;
15876;SDS011;8037;51.666;7.834;2022-12-08T01:39:14;12.00;;;7.30;;
15876;SDS011;8037;51.666;7.834;2022-12-08T01:41:41;10.70;;;6.57;;
15876;SDS011;8037;51.666;7.834;2022-12-08T01:46:37;10.53;;;6.90;;
15876;SDS011;8037;51.666;7.834;2022-12-08T01:49:07;8.97;;;5.93;;
15876;SDS011;8037;51.666;7.834;2022-12-08T01:51:43;11.50;;;8.30;;
15876;SDS011;8037;51.666;7.834;2022-12-08T01:54:18;10.93;;;7.77;;
15876;SDS011;8037;51.666;7.834;2022-12-08T01:56:49;14.20;;;8.20;;
15876;SDS011;8037;51.666;7.834;2022-12-08T01:59:22;11.90;;;7.80;;
15876;SDS011;8037;51.666;7.834;2022-12-08T02:01:49;8.67;;;7.00;;
15876;SDS011;8037;51.666;7.834;2022-12-08T02:04:15;11.23;;;7.70;;
15876;SDS011;8037;51.666;7.834;2022-12-08T02:06:42;12.10;;;8.00;;
15876;SDS011;8037;51.666;7.834;2022-12-08T02:09:09;15.23;;;8.00;;
15876;SDS011;8037;51.666;7.834;2022-12-08T02:11:35;14.83;;;8.27;;
15876;SDS011;8037;51.666;7.834;2022-12-08T02:14:02;13.80;;;7.57;;
15876;SDS011;8037;51.666;7.834;2022-12-08T02:16:41;7.87;;;6.30;;
15876;SDS011;8037;51.666;7.834;2022-12-08T02:22:05;11.50;;;7.87;;
15876;SDS011;8037;51.666;7.834;2022-12-08T02:29:31;11.57;;;7.30;;
15876;SDS011;8037;51.666;7.834;2022-12-08T02:34:47;8.50;;;6.90;;
15876;SDS011;8037;51.666;7.834;2022-12-08T02:37:28;13.40;;;6.37;;
15876;SDS011;8037;51.666;7.834;2022-12-08T02:40:05;6.90;;;5.83;;
15876;SDS011;8037;51.666;7.834;2022-12-08T02:42:36;9.30;;;6.40;;
15876;SDS011;8037;51.666;7.834;2022-12-08T02:45:22;9.17;;;6.07;;
15876;SDS011;8037;51.666;7.834;2022-12-08T02:47:53;11.17;;;6.97;;
15876;SDS011;8037;51.666;7.834;2022-12-08T02:50:20;10.50;;;6.03;;
15876;SDS011;8037;51.666;7.834;2022-12-08T02:52:46;9.93;;;6.60;;
15876;SDS011;8037;51.666;7.834;2022-12-08T02:55:14;8.03;;;6.70;;
15876;SDS011;8037;51.666;7.834;2022-12-08T03:00:20;5.70;;;5.13;;
15876;SDS011;8037;51.666;7.834;2022-12-08T03:08:15;6.03;;;5.30;;
15876;SDS011;8037;51.666;7.834;2022-12-08T03:10:46;7.83;;;5.60;;
15876;SDS011;8037;51.666;7.834;2022-12-08T03:13:22;7.30;;;5.60;;
15876;SDS011;8037;51.666;7.834;2022-12-08T03:15:56;8.40;;;5.43;;
15876;SDS011;8037;51.666;7.834;2022-12-08T03:18:22;5.63;;;5.13;;
15876;SDS011;8037;51.666;7.834;2022-12-08T03:20:54;8.50;;;6.30;;
15876;SDS011;8037;51.666;7.834;2022-12-08T03:23:20;6.30;;;5.40;;
15876;SDS011;8037;51.666;7.834;2022-12-08T03:25:50;6.80;;;6.10;;
15876;SDS011;8037;51.666;7.834;2022-12-08T03:28:23;6.67;;;6.00;;
15876;SDS011;8037;51.666;7.834;2022-12-08T03:30:50;7.47;;;6.10;;
15876;SDS011;8037;51.666;7.834;2022-12-08T03:33:27;11.83;;;7.20;;
15876;SDS011;8037;51.666;7.834;2022-12-08T03:35:57;8.10;;;6.13;;
15876;SDS011;8037;51.666;7.834;2022-12-08T03:38:25;7.33;;;6.10;;
15876;SDS011;8037;51.666;7.834;2022-12-08T03:40:51;6.60;;;5.90;;
15876;SDS011;8037;51.666;7.834;2022-12-08T03:43:35;8.47;;;5.60;;
15876;SDS011;8037;51.666;7.834;2022-12-08T03:46:01;10.80;;;5.70;;
15876;SDS011;8037;51.666;7.834;2022-12-08T03:48:27;8.40;;;5.87;;
15876;SDS011;8037;51.666;7.834;2022-12-08T03:50:53;6.70;;;6.10;;
15876;SDS011;8037;51.666;7.834;2022-12-08T03:53:19;8.17;;;6.43;;
15876;SDS011;8037;51.666;7.834;2022-12-08T03:55:45;9.53;;;7.30;;
15876;SDS011;8037;51.666;7.834;2022-12-08T03:58:11;7.80;;;6.80;;
15876;SDS011;8037;51.666;7.834;2022-12-08T04:00:36;9.03;;;5.77;;
15876;SDS011;8037;51.666;7.834;2022-12-08T04:03:02;7.10;;;6.50;;
15876;SDS011;8037;51.666;7.834;2022-12-08T04:05:30;6.67;;;5.80;;
15876;SDS011;8037;51.666;7.834;2022-12-08T04:07:56;7.10;;;6.17;;
15876;SDS011;8037;51.666;7.834;2022-12-08T04:10:22;11.30;;;6.73;;
15876;SDS011;8037;51.666;7.834;2022-12-08T04:12:47;8.57;;;7.73;;
15876;SDS011;8037;51.666;7.834;2022-12-08T04:15:13;9.00;;;7.77;;
15876;SDS011;8037;51.666;7.834;2022-12-08T04:17:39;8.53;;;7.63;;
15876;SDS011;8037;51.666;7.834;2022-12-08T04:20:05;11.87;;;6.77;;
15876;SDS011;8037;51.666;7.834;2022-12-08T04:22:31;8.07;;;6.70;;
15876;SDS011;8037;51.666;7.834;2022-12-08T04:24:57;12.67;;;7.40;;
15876;SDS011;8037;51.666;7.834;2022-12-08T04:27:23;8.97;;;6.97;;
15876;SDS011;8037;51.666;7.834;2022-12-08T04:29:49;8.43;;;7.63;;
15876;SDS011;8037;51.666;7.834;2022-12-08T04:32:15;13.87;;;8.27;;
15876;SDS011;8037;51.666;7.834;2022-12-08T04:34:41;13.60;;;8.10;;
15876;SDS011;8037;51.666;7.834;2022-12-08T04:37:06;14.43;;;8.73;;
15876;SDS011;8037;51.666;7.834;2022-12-08T04:39:32;13.50;;;7.50;;
15876;SDS011;8037;51.666;7.834;2022-12-08T04:41:58;10.53;;;8.60;;
15876;SDS011;8037;51.666;7.834;2022-12-08T04:44:24;12.77;;;7.93;;
15876;SDS011;8037;51.666;7.834;2022-12-08T04:46:50;11.33;;;8.40;;
15876;SDS011;8037;51.666;7.834;2022-12-08T04:49:16;10.83;;;8.40;;
15876;SDS011;8037;51.666;7.834;2022-12-08T04:51:42;11.27;;;8.03;;
15876;SDS011;8037;51.666;7.834;2022-12-08T04:54:08;13.77;;;7.90;;
15876;SDS011;8037;51.666;7.834;2022-12-08T04:56:34;18.60;;;9.10;;
15876;SDS011;8037;51.666;7.834;2022-12-08T04:58:59;11.33;;;8.53;;
15876;SDS011;8037;51.666;7.834;2022-12-08T05:01:25;15.83;;;7.50;;
15876;SDS011;8037;51.666;7.834;2022-12-08T05:03:51;14.70;;;7.50;;
15876;SDS011;8037;51.666;7.834;2022-12-08T05:06:17;9.20;;;7.90;;
15876;SDS011;8037;51.666;7.834;2022-12-08T05:08:43;11.20;;;7.97;;
15876;SDS011;8037;51.666;7.834;2022-12-08T05:11:09;15.13;;;8.60;;
15876;SDS011;8037;51.666;7.834;2022-12-08T05:13:36;10.30;;;7.27;;
15876;SDS011;8037;51.666;7.834;2022-12-08T05:16:10;9.80;;;7.00;;
15876;SDS011;8037;51.666;7.834;2022-12-08T05:18:37;8.60;;;7.10;;
15876;SDS011;8037;51.666;7.834;2022-12-08T05:21:04;13.00;;;8.60;;
15876;SDS011;8037;51.666;7.834;2022-12-08T05:23:30;13.23;;;9.10;;
15876;SDS011;8037;51.666;7.834;2022-12-08T05:25:56;16.93;;;8.63;;
15876;SDS011;8037;51.666;7.834;2022-12-08T05:28:22;13.33;;;9.13;;
15876;SDS011;8037;51.666;7.834;2022-12-08T05:30:49;14.90;;;9.10;;
15876;SDS011;8037;51.666;7.834;2022-12-08T05:33:15;8.20;;;7.00;;
15876;SDS011;8037;51.666;7.834;2022-12-08T05:35:41;12.37;;;8.37;;
15876;SDS011;8037;51.666;7.834;2022-12-08T05:38:07;10.40;;;7.60;;
15876;SDS011;8037;51.666;7.834;2022-12-08T05:40:33;15.17;;;8.33;;
15876;SDS011;8037;51.666;7.834;2022-12-08T05:42:59;11.80;;;7.90;;
15876;SDS011;8037;51.666;7.834;2022-12-08T05:45:25;12.33;;;8.23;;
15876;SDS011;8037;51.666;7.834;2022-12-08T05:47:52;9.37;;;6.57;;
15876;SDS011;8037;51.666;7.834;2022-12-08T05:50:17;11.80;;;8.00;;
15876;SDS011;8037;51.666;7.834;2022-12-08T05:52:43;7.57;;;6.00;;
15876;SDS011;8037;51.666;7.834;2022-12-08T05:55:09;13.43;;;7.33;;
15876;SDS011;8037;51.666;7.834;2022-12-08T05:57:35;13.07;;;8.37;;
15876;SDS011;8037;51.666;7.834;2022-12-08T06:00:01;8.67;;;6.83;;
15876;SDS011;8037;51.666;7.834;2022-12-08T06:02:27;11.50;;;8.03;;
15876;SDS011;8037;51.666;7.834;2022-12-08T06:04:53;14.40;;;8.80;;
15876;SDS011;8037;51.666;7.834;2022-12-08T06:07:19;11.87;;;7.20;;
15876;SDS011;8037;51.666;7.834;2022-12-08T06:09:45;11.40;;;6.67;;
15876;SDS011;8037;51.666;7.834;2022-12-08T06:12:11;6.87;;;6.20;;
15876;SDS011;8037;51.666;7.834;2022-12-08T06:14:38;6.23;;;5.63;;
15876;SDS011;8037;51.666;7.834;2022-12-08T06:17:04;9.90;;;7.70;;
15876;SDS011;8037;51.666;7.834;2022-12-08T06:19:30;8.70;;;6.03;;
15876;SDS011;8037;51.666;7.834;2022-12-08T06:21:55;6.90;;;6.00;;
15876;SDS011;8037;51.666;7.834;2022-12-08T06:24:21;7.60;;;6.37;;
15876;SDS011;8037;51.666;7.834;2022-12-08T06:26:47;5.87;;;5.30;;
15876;SDS011;8037;51.666;7.834;2022-12-08T06:29:13;9.43;;;6.70;;
15876;SDS011;8037;51.666;7.834;2022-12-08T06:31:39;10.80;;;7.37;;
15876;SDS011;8037;51.666;7.834;2022-12-08T06:34:05;11.60;;;7.90;;
15876;SDS011;8037;51.666;7.834;2022-12-08T06:36:31;6.90;;;6.23;;
15876;SDS011;8037;51.666;7.834;2022-12-08T06:38:58;9.50;;;7.10;;
15876;SDS011;8037;51.666;7.834;2022-12-08T06:41:24;6.53;;;5.90;;
15876;SDS011;8037;51.666;7.834;2022-12-08T06:43:50;7.03;;;6.23;;
15876;SDS011;8037;51.666;7.834;2022-12-08T06:46:17;7.90;;;5.70;;
15876;SDS011;8037;51.666;7.834;2022-12-08T06:48:43;5.63;;;5.07;;
15876;SDS011;8037;51.666;7.834;2022-12-08T06:51:10;4.47;;;4.13;;
15876;SDS011;8037;51.666;7.834;2022-12-08T06:53:37;4.60;;;4.30;;
15876;SDS011;8037;51.666;7.834;2022-12-08T06:56:03;5.57;;;5.03;;
15876;SDS011;8037;51.666;7.834;2022-12-08T06:58:30;5.43;;;4.90;;
15876;SDS011;8037;51.666;7.834;2022-12-08T07:00:55;5.50;;;5.00;;
15876;SDS011;8037;51.666;7.834;2022-12-08T07:03:22;6.47;;;4.57;;
15876;SDS011;8037;51.666;7.834;2022-12-08T07:05:48;14.60;;;4.97;;
15876;SDS011;8037;51.666;7.834;2022-12-08T07:08:14;5.07;;;4.67;;
15876;SDS011;8037;51.666;7.834;2022-12-08T07:10:40;6.07;;;5.50;;
15876;SDS011;8037;51.666;7.834;2022-12-08T07:13:05;4.90;;;4.50;;
15876;SDS011;8037;51.666;7.834;2022-12-08T07:15:32;4.37;;;4.03;;
15876;SDS011;8037;51.666;7.834;2022-12-08T07:17:58;5.90;;;5.30;;
15876;SDS011;8037;51.666;7.834;2022-12-08T07:20:26;4.97;;;4.47;;
15876;SDS011;8037;51.666;7.834;2022-12-08T07:22:52;5.27;;;4.77;;
15876;SDS011;8037;51.666;7.834;2022-12-08T07:25:18;6.27;;;4.97;;
15876;SDS011;8037;51.666;7.834;2022-12-08T07:27:44;5.40;;;4.93;;
15876;SDS011;8037;51.666;7.834;2022-12-08T07:30:11;5.20;;;4.70;;
15876;SDS011;8037;51.666;7.834;2022-12-08T07:32:37;7.20;;;6.50;;
15876;SDS011;8037;51.666;7.834;2022-12-08T07:35:04;7.73;;;6.30;;
15876;SDS011;8037;51.666;7.834;2022-12-08T07:37:31;7.90;;;6.20;;
15876;SDS011;8037;51.666;7.834;2022-12-08T07:39:58;7.40;;;6.67;;
15876;SDS011;8037;51.666;7.834;2022-12-08T07:42:24;16.80;;;10.17;;
15876;SDS011;8037;51.666;7.834;2022-12-08T07:44:50;13.60;;;6.97;;
15876;SDS011;8037;51.666;7.834;2022-12-08T07:47:16;8.60;;;7.60;;
15876;SDS011;8037;51.666;7.834;2022-12-08T07:49:42;10.90;;;7.77;;
15876;SDS011;8037;51.666;7.834;2022-12-08T07:52:08;7.80;;;7.00;;
15876;SDS011;8037;51.666;7.834;2022-12-08T07:54:34;10.80;;;7.40;;
15876;SDS011;8037;51.666;7.834;2022-12-08T07:57:00;9.03;;;7.90;;
15876;SDS011;8037;51.666;7.834;2022-12-08T07:59:27;11.90;;;8.70;;
15876;SDS011;8037;51.666;7.834;2022-12-08T08:01:53;14.37;;;8.60;;
15876;SDS011;8037;51.666;7.834;2022-12-08T08:04:19;17.07;;;7.63;;
15876;SDS011;8037;51.666;7.834;2022-12-08T08:06:45;16.90;;;8.57;;
15876;SDS011;8037;51.666;7.834;2022-12-08T08:09:11;12.17;;;7.33;;
15876;SDS011;8037;51.666;7.834;2022-12-08T08:11:37;9.27;;;7.30;;
15876;SDS011;8037;51.666;7.834;2022-12-08T08:14:03;7.77;;;6.77;;
15876;SDS011;8037;51.666;7.834;2022-12-08T08:16:29;12.10;;;6.03;;
15876;SDS011;8037;51.666;7.834;2022-12-08T08:18:54;6.73;;;6.07;;
15876;SDS011;8037;51.666;7.834;2022-12-08T08:21:20;9.60;;;7.60;;
15876;SDS011;8037;51.666;7.834;2022-12-08T08:23:46;14.13;;;8.67;;
15876;SDS011;8037;51.666;7.834;2022-12-08T08:26:12;10.23;;;7.23;;
15876;SDS011;8037;51.666;7.834;2022-12-08T08:28:38;9.53;;;6.87;;
15876;SDS011;8037;51.666;7.834;2022-12-08T08:31:04;11.30;;;7.87;;
15876;SDS011;8037;51.666;7.834;2022-12-08T08:33:31;12.90;;;10.20;;
15876;SDS011;8037;51.666;7.834;2022-12-08T08:35:57;12.43;;;9.90;;
15876;SDS011;8037;51.666;7.834;2022-12-08T08:38:23;8.83;;;7.97;;
15876;SDS011;8037;51.666;7.834;2022-12-08T08:40:49;33.37;;;20.20;;
15876;SDS011;8037;51.666;7.834;2022-12-08T08:43:15;51.37;;;27.23;;
15876;SDS011;8037;51.666;7.834;2022-12-08T08:45:57;31.63;;;20.77;;
15876;SDS011;8037;51.666;7.834;2022-12-08T08:48:24;22.47;;;13.90;;
15876;SDS011;8037;51.666;7.834;2022-12-08T08:50:50;8.70;;;6.93;;
15876;SDS011;8037;51.666;7.834;2022-12-08T08:53:16;5.77;;;5.20;;
15876;SDS011;8037;51.666;7.834;2022-12-08T08:55:41;4.57;;;4.00;;
15876;SDS011;8037;51.666;7.834;2022-12-08T08:58:07;5.40;;;4.87;;
15876;SDS011;8037;51.666;7.834;2022-12-08T09:00:33;6.77;;;4.80;;
15876;SDS011;8037;51.666;7.834;2022-12-08T09:02:59;5.10;;;4.57;;
15876;SDS011;8037;51.666;7.834;2022-12-08T09:05:25;8.03;;;5.00;;
15876;SDS011;8037;51.666;7.834;2022-12-08T09:07:51;7.40;;;4.67;;
15876;SDS011;8037;51.666;7.834;2022-12-08T09:10:17;6.93;;;5.20;;
15876;SDS011;8037;51.666;7.834;2022-12-08T09:12:43;5.63;;;4.93;;
15876;SDS011;8037;51.666;7.834;2022-12-08T09:15:09;4.83;;;4.43;;
15876;SDS011;8037;51.666;7.834;2022-12-08T09:17:35;4.73;;;4.40;;
15876;SDS011;8037;51.666;7.834;2022-12-08T09:20:02;3.90;;;3.50;;
15876;SDS011;8037;51.666;7.834;2022-12-08T09:22:28;5.37;;;4.10;;
15876;SDS011;8037;51.666;7.834;2022-12-08T09:24:53;4.47;;;4.07;;
15876;SDS011;8037;51.666;7.834;2022-12-08T09:27:19;4.67;;;4.30;;
15876;SDS011;8037;51.666;7.834;2022-12-08T09:29:45;3.90;;;3.37;;
15876;SDS011;8037;51.666;7.834;2022-12-08T09:32:11;3.47;;;3.00;;
15876;SDS011;8037;51.666;7.834;2022-12-08T09:34:37;4.07;;;2.77;;
15876;SDS011;8037;51.666;7.834;2022-12-08T09:37:03;3.17;;;2.87;;
15876;SDS011;8037;51.666;7.834;2022-12-08T09:39:29;2.90;;;2.70;;
15876;SDS011;8037;51.666;7.834;2022-12-08T09:42:02;1.83;;;1.73;;
15876;SDS011;8037;51.666;7.834;2022-12-08T09:50:14;2.47;;;2.27;;
15876;SDS011;8037;51.666;7.834;2022-12-08T09:53:07;2.07;;;1.97;;
15876;SDS011;8037;51.666;7.834;2022-12-08T09:55:41;3.90;;;2.47;;
15876;SDS011;8037;51.666;7.834;2022-12-08T09:58:12;2.50;;;2.40;;
15876;SDS011;8037;51.666;7.834;2022-12-08T10:00:46;2.13;;;2.00;;
15876;SDS011;8037;51.666;7.834;2022-12-08T10:03:12;1.67;;;1.57;;
15876;SDS011;8037;51.666;7.834;2022-12-08T10:05:41;2.00;;;1.77;;
15876;SDS011;8037;51.666;7.834;2022-12-08T10:08:18;1.47;;;1.43;;
15876;SDS011;8037;51.666;7.834;2022-12-08T10:10:53;1.53;;;1.43;;
15876;SDS011;8037;51.666;7.834;2022-12-08T10:18:34;1.10;;;1.10;;
15876;SDS011;8037;51.666;7.834;2022-12-08T10:21:35;0.97;;;0.97;;
15876;SDS011;8037;51.666;7.834;2022-12-08T10:23:55;1.53;;;1.43;;
15876;SDS011;8037;51.666;7.834;2022-12-08T10:26:25;1.43;;;1.33;;
15876;SDS011;8037;51.666;7.834;2022-12-08T10:28:52;4.97;;;1.20;;
15876;SDS011;8037;51.666;7.834;2022-12-08T10:31:24;15.57;;;1.43;;
15876;SDS011;8037;51.666;7.834;2022-12-08T10:33:59;1.90;;;1.57;;
15876;SDS011;8037;51.666;7.834;2022-12-08T10:36:43;1.57;;;1.20;;
15876;SDS011;8037;51.666;7.834;2022-12-08T10:39:30;4.07;;;1.27;;
15876;SDS011;8037;51.666;7.834;2022-12-08T10:42:06;2.00;;;1.80;;
15876;SDS011;8037;51.666;7.834;2022-12-08T10:44:32;4.93;;;1.63;;
15876;SDS011;8037;51.666;7.834;2022-12-08T10:47:10;1.17;;;1.10;;
15876;SDS011;8037;51.666;7.834;2022-12-08T10:49:37;1.30;;;1.17;;
15876;SDS011;8037;51.666;7.834;2022-12-08T10:52:07;1.70;;;1.60;;
15876;SDS011;8037;51.666;7.834;2022-12-08T10:54:45;2.27;;;1.37;;
15876;SDS011;8037;51.666;7.834;2022-12-08T10:57:18;2.90;;;1.30;;
15876;SDS011;8037;51.666;7.834;2022-12-08T10:59:45;1.40;;;1.30;;
15876;SDS011;8037;51.666;7.834;2022-12-08T11:02:16;1.57;;;1.47;;
15876;SDS011;8037;51.666;7.834;2022-12-08T11:04:43;1.50;;;1.50;;
15876;SDS011;8037;51.666;7.834;2022-12-08T11:07:09;1.83;;;1.73;;
15876;SDS011;8037;51.666;7.834;2022-12-08T11:09:39;2.60;;;2.10;;
15876;SDS011;8037;51.666;7.834;2022-12-08T11:12:16;1.80;;;1.73;;
15876;SDS011;8037;51.666;7.834;2022-12-08T11:19:57;2.30;;;2.10;;
15876;SDS011;8037;51.666;7.834;2022-12-08T11:24:58;1.90;;;1.73;;
15876;SDS011;8037;51.666;7.834;2022-12-08T11:27:45;1.90;;;1.80;;
15876;SDS011;8037;51.666;7.834;2022-12-08T11:32:46;1.90;;;1.80;;
15876;SDS011;8037;51.666;7.834;2022-12-08T11:35:22;1.80;;;1.70;;
15876;SDS011;8037;51.666;7.834;2022-12-08T11:38:02;2.33;;;2.23;;
15876;SDS011;8037;51.666;7.834;2022-12-08T11:40:34;12.23;;;2.03;;
15876;SDS011;8037;51.666;7.834;2022-12-08T11:45:46;1.83;;;1.73;;
15876;SDS011;8037;51.666;7.834;2022-12-08T11:48:16;2.20;;;2.10;;
15876;SDS011;8037;51.666;7.834;2022-12-08T11:53:13;1.70;;;1.60;;
15876;SDS011;8037;51.666;7.834;2022-12-08T11:55:46;1.90;;;1.80;;
15876;SDS011;8037;51.666;7.834;2022-12-08T12:00:42;2.53;;;2.33;;
15876;SDS011;8037;51.666;7.834;2022-12-08T12:03:11;2.07;;;1.97;;
15876;SDS011;8037;51.666;7.834;2022-12-08T12:16:59;5.40;;;3.37;;
15876;SDS011;8037;51.666;7.834;2022-12-08T12:19:26;2.70;;;2.50;;
15876;SDS011;8037;51.666;7.834;2022-12-08T12:21:57;4.27;;;3.70;;
15876;SDS011;8037;51.666;7.834;2022-12-08T12:24:30;3.40;;;3.10;;
15876;SDS011;8037;51.666;7.834;2022-12-08T12:27:00;3.00;;;2.80;;
15876;SDS011;8037;51.666;7.834;2022-12-08T12:29:31;2.80;;;2.53;;
15876;SDS011;8037;51.666;7.834;2022-12-08T12:32:07;2.43;;;2.33;;
15876;SDS011;8037;51.666;7.834;2022-12-08T12:34:36;2.13;;;2.03;;
15876;SDS011;8037;51.666;7.834;2022-12-08T12:37:13;3.50;;;3.30;;
15876;SDS011;8037;51.666;7.834;2022-12-08T12:42:40;2.73;;;2.60;;
15876;SDS011;8037;51.666;7.834;2022-12-08T12:47:48;4.23;;;3.73;;
15876;SDS011;8037;51.666;7.834;2022-12-08T12:52:58;3.67;;;3.33;;
15876;SDS011;8037;51.666;7.834;2022-12-08T13:04:12;6.27;;;5.53;;
15876;SDS011;8037;51.666;7.834;2022-12-08T13:06:49;8.00;;;5.97;;
15876;SDS011;8037;51.666;7.834;2022-12-08T13:09:48;8.03;;;5.83;;
15876;SDS011;8037;51.666;7.834;2022-12-08T13:12:08;6.70;;;5.93;;
15876;SDS011;8037;51.666;7.834;2022-12-08T13:14:47;10.40;;;4.57;;
15876;SDS011;8037;51.666;7.834;2022-12-08T13:17:15;5.50;;;4.50;;
15876;SDS011;8037;51.666;7.834;2022-12-08T13:20:03;4.73;;;4.33;;
15876;SDS011;8037;51.666;7.834;2022-12-08T13:28:22;4.00;;;3.70;;
15876;SDS011;8037;51.666;7.834;2022-12-08T13:30:54;5.57;;;4.30;;
15876;SDS011;8037;51.666;7.834;2022-12-08T13:35:50;4.17;;;3.87;;
15876;SDS011;8037;51.666;7.834;2022-12-08T13:38:21;3.80;;;3.43;;
15876;SDS011;8037;51.666;7.834;2022-12-08T13:40:53;3.83;;;3.53;;
15876;SDS011;8037;51.666;7.834;2022-12-08T13:43:28;4.93;;;4.50;;
15876;SDS011;8037;51.666;7.834;2022-12-08T13:45:58;7.70;;;3.47;;
15876;SDS011;8037;51.666;7.834;2022-12-08T13:48:30;4.03;;;3.73;;
15876;SDS011;8037;51.666;7.834;2022-12-08T13:53:40;3.73;;;3.43;;
15876;SDS011;8037;51.666;7.834;2022-12-08T13:56:09;3.90;;;3.70;;
15876;SDS011;8037;51.666;7.834;2022-12-08T13:58:37;3.73;;;3.43;;
15876;SDS011;8037;51.666;7.834;2022-12-08T14:01:07;3.70;;;3.40;;
15876;SDS011;8037;51.666;7.834;2022-12-08T14:06:36;3.37;;;3.07;;
15876;SDS011;8037;51.666;7.834;2022-12-08T14:09:06;3.53;;;3.27;;
15876;SDS011;8037;51.666;7.834;2022-12-08T14:11:37;4.47;;;4.17;;
15876;SDS011;8037;51.666;7.834;2022-12-08T14:14:22;3.23;;;3.03;;
15876;SDS011;8037;51.666;7.834;2022-12-08T14:17:00;3.77;;;3.47;;
15876;SDS011;8037;51.666;7.834;2022-12-08T14:19:33;3.43;;;3.13;;
15876;SDS011;8037;51.666;7.834;2022-12-08T14:24:33;4.27;;;3.87;;
15876;SDS011;8037;51.666;7.834;2022-12-08T14:27:00;5.17;;;3.83;;
15876;SDS011;8037;51.666;7.834;2022-12-08T14:29:39;7.20;;;4.47;;
15876;SDS011;8037;51.666;7.834;2022-12-08T14:34:53;4.37;;;4.07;;
15876;SDS011;8037;51.666;7.834;2022-12-08T14:37:19;4.30;;;4.00;;
15876;SDS011;8037;51.666;7.834;2022-12-08T14:39:46;3.57;;;3.27;;
15876;SDS011;8037;51.666;7.834;2022-12-08T14:42:22;8.57;;;3.50;;
15876;SDS011;8037;51.666;7.834;2022-12-08T14:45:01;3.60;;;3.40;;
15876;SDS011;8037;51.666;7.834;2022-12-08T14:47:31;4.07;;;3.73;;
15876;SDS011;8037;51.666;7.834;2022-12-08T14:49:58;3.50;;;3.20;;
15876;SDS011;8037;51.666;7.834;2022-12-08T14:52:24;4.30;;;3.90;;
15876;SDS011;8037;51.666;7.834;2022-12-08T14:54:50;5.50;;;3.90;;
15876;SDS011;8037;51.666;7.834;2022-12-08T14:57:17;5.07;;;3.97;;
15876;SDS011;8037;51.666;7.834;2022-12-08T14:59:43;6.83;;;5.30;;
15876;SDS011;8037;51.666;7.834;2022-12-08T15:04:36;4.50;;;4.10;;
15876;SDS011;8037;51.666;7.834;2022-12-08T15:07:16;5.17;;;4.10;;
15876;SDS011;8037;51.666;7.834;2022-12-08T15:09:46;5.53;;;4.73;;
15876;SDS011;8037;51.666;7.834;2022-12-08T15:14:40;3.73;;;3.53;;
15876;SDS011;8037;51.666;7.834;2022-12-08T15:19:56;7.03;;;6.33;;
15876;SDS011;8037;51.666;7.834;2022-12-08T15:22:23;22.47;;;18.57;;
15876;SDS011;8037;51.666;7.834;2022-12-08T15:24:50;20.53;;;18.13;;
15876;SDS011;8037;51.666;7.834;2022-12-08T15:27:17;26.93;;;10.27;;
15876;SDS011;8037;51.666;7.834;2022-12-08T15:29:45;5.67;;;5.00;;
15876;SDS011;8037;51.666;7.834;2022-12-08T15:32:11;4.13;;;3.83;;
15876;SDS011;8037;51.666;7.834;2022-12-08T15:34:37;6.67;;;4.40;;
15876;SDS011;8037;51.666;7.834;2022-12-08T15:37:03;8.60;;;3.30;;
15876;SDS011;8037;51.666;7.834;2022-12-08T15:39:30;6.40;;;3.53;;
15876;SDS011;8037;51.666;7.834;2022-12-08T15:41:56;3.63;;;3.43;;
15876;SDS011;8037;51.666;7.834;2022-12-08T15:44:23;4.93;;;3.50;;
15876;SDS011;8037;51.666;7.834;2022-12-08T15:46:48;4.30;;;3.90;;
15876;SDS011;8037;51.666;7.834;2022-12-08T15:49:15;5.00;;;4.50;;
15876;SDS011;8037;51.666;7.834;2022-12-08T15:51:42;4.70;;;4.20;;
15876;SDS011;8037;51.666;7.834;2022-12-08T15:54:08;4.90;;;4.40;;
15876;SDS011;8037;51.666;7.834;2022-12-08T15:56:35;5.03;;;3.40;;
15876;SDS011;8037;51.666;7.834;2022-12-08T15:59:04;4.80;;;4.40;;
15876;SDS011;8037;51.666;7.834;2022-12-08T16:01:30;8.20;;;4.20;;
15876;SDS011;8037;51.666;7.834;2022-12-08T16:03:56;5.47;;;3.90;;
15876;SDS011;8037;51.666;7.834;2022-12-08T16:06:22;5.63;;;5.03;;
15876;SDS011;8037;51.666;7.834;2022-12-08T16:08:48;3.83;;;3.53;;
15876;SDS011;8037;51.666;7.834;2022-12-08T16:11:13;4.40;;;3.97;;
15876;SDS011;8037;51.666;7.834;2022-12-08T16:13:58;4.07;;;3.67;;
15876;SDS011;8037;51.666;7.834;2022-12-08T16:16:28;3.47;;;3.20;;
15876;SDS011;8037;51.666;7.834;2022-12-08T16:18:54;7.83;;;5.57;;
15876;SDS011;8037;51.666;7.834;2022-12-08T16:21:20;5.60;;;4.67;;
15876;SDS011;8037;51.666;7.834;2022-12-08T16:23:45;4.67;;;4.20;;
15876;SDS011;8037;51.666;7.834;2022-12-08T16:26:12;6.60;;;4.47;;
15876;SDS011;8037;51.666;7.834;2022-12-08T16:28:40;3.90;;;3.60;;
15876;SDS011;8037;51.666;7.834;2022-12-08T16:31:06;8.40;;;5.70;;
15876;SDS011;8037;51.666;7.834;2022-12-08T16:33:32;4.13;;;3.60;;
15876;SDS011;8037;51.666;7.834;2022-12-08T16:35:58;4.50;;;3.73;;
15876;SDS011;8037;51.666;7.834;2022-12-08T16:38:23;9.07;;;5.50;;
15876;SDS011;8037;51.666;7.834;2022-12-08T16:40:49;11.23;;;6.67;;
15876;SDS011;8037;51.666;7.834;2022-12-08T16:43:34;12.83;;;9.87;;
15876;SDS011;8037;51.666;7.834;2022-12-08T16:46:00;10.90;;;8.23;;
15876;SDS011;8037;51.666;7.834;2022-12-08T16:48:26;8.17;;;5.93;;
15876;SDS011;8037;51.666;7.834;2022-12-08T16:50:52;6.03;;;5.30;;